Terminal Aerodrome Forecast
Issued by NWS Charleston, SC

Home | Current Version | Previous Version | Text Only | Print | Product List | Glossary On
Versions: 1 2 3 4 5 6 7 8 9 10 11 12 13
000
FTUS42 KCHS 010500
TAFCHS
TAF
KCHS 010520Z 0106/0206 VRB03KT P6SM SCT015 SCT250
     FM011900 17010KT P6SM SCT035 SCT250
     FM020100 20005KT P6SM FEW025 SCT250=

USA.gov is the U.S. government's official web portal to all federal, state and local government web resources and services.